sensor_id;sensor_type;location;lat;lon;timestamp;temperature;humidity
67641;SHT31;54434;50.096;20.082;2023-04-08T00:01:55;1.58;86.21
67641;SHT31;54434;50.096;20.082;2023-04-08T00:04:32;1.53;86.26
67641;SHT31;54434;50.096;20.082;2023-04-08T00:07:08;1.49;86.33
67641;SHT31;54434;50.096;20.082;2023-04-08T00:09:45;1.46;86.46
67641;SHT31;54434;50.096;20.082;2023-04-08T00:12:21;1.42;86.58
67641;SHT31;54434;50.096;20.082;2023-04-08T00:14:58;1.39;86.52
67641;SHT31;54434;50.096;20.082;2023-04-08T00:17:34;1.36;86.50
67641;SHT31;54434;50.096;20.082;2023-04-08T00:20:11;1.31;86.53
67641;SHT31;54434;50.096;20.082;2023-04-08T00:22:47;1.29;86.58
67641;SHT31;54434;50.096;20.082;2023-04-08T00:25:24;1.26;86.69
67641;SHT31;54434;50.096;20.082;2023-04-08T00:28:01;1.24;86.70
67641;SHT31;54434;50.096;20.082;2023-04-08T00:30:38;1.22;86.86
67641;SHT31;54434;50.096;20.082;2023-04-08T00:33:14;1.21;86.90
67641;SHT31;54434;50.096;20.082;2023-04-08T00:35:51;1.20;86.90
67641;SHT31;54434;50.096;20.082;2023-04-08T00:38:27;1.19;87.06
67641;SHT31;54434;50.096;20.082;2023-04-08T00:41:03;1.21;87.11
67641;SHT31;54434;50.096;20.082;2023-04-08T00:43:40;1.22;87.19
67641;SHT31;54434;50.096;20.082;2023-04-08T00:46:16;1.23;87.26
67641;SHT31;54434;50.096;20.082;2023-04-08T00:48:53;1.26;87.29
67641;SHT31;54434;50.096;20.082;2023-04-08T00:51:30;1.29;87.30
67641;SHT31;54434;50.096;20.082;2023-04-08T00:54:07;1.33;87.30
67641;SHT31;54434;50.096;20.082;2023-04-08T00:56:44;1.37;87.29
67641;SHT31;54434;50.096;20.082;2023-04-08T00:59:20;1.41;87.24
67641;SHT31;54434;50.096;20.082;2023-04-08T01:01:58;1.45;87.20
67641;SHT31;54434;50.096;20.082;2023-04-08T01:04:49;1.49;87.17
67641;SHT31;54434;50.096;20.082;2023-04-08T01:07:33;1.53;87.09
67641;SHT31;54434;50.096;20.082;2023-04-08T01:10:21;1.58;87.05
67641;SHT31;54434;50.096;20.082;2023-04-08T01:13:07;1.61;86.98
67641;SHT31;54434;50.096;20.082;2023-04-08T01:15:49;1.64;86.95
67641;SHT31;54434;50.096;20.082;2023-04-08T01:18:28;1.67;86.90
67641;SHT31;54434;50.096;20.082;2023-04-08T01:21:07;1.68;86.89
67641;SHT31;54434;50.096;20.082;2023-04-08T01:24:00;1.72;86.80
67641;SHT31;54434;50.096;20.082;2023-04-08T01:26:43;1.76;86.74
67641;SHT31;54434;50.096;20.082;2023-04-08T01:29:20;1.78;86.69
67641;SHT31;54434;50.096;20.082;2023-04-08T01:31:57;1.81;86.67
67641;SHT31;54434;50.096;20.082;2023-04-08T01:34:37;1.83;86.64
67641;SHT31;54434;50.096;20.082;2023-04-08T01:37:15;1.85;86.66
67641;SHT31;54434;50.096;20.082;2023-04-08T01:39:57;1.87;86.68
67641;SHT31;54434;50.096;20.082;2023-04-08T01:42:36;1.88;86.75
67641;SHT31;54434;50.096;20.082;2023-04-08T01:45:15;1.89;86.79
67641;SHT31;54434;50.096;20.082;2023-04-08T01:47:52;1.92;86.80
67641;SHT31;54434;50.096;20.082;2023-04-08T01:50:32;1.96;86.88
67641;SHT31;54434;50.096;20.082;2023-04-08T01:53:10;1.97;86.99
67641;SHT31;54434;50.096;20.082;2023-04-08T01:55:48;1.99;86.99
67641;SHT31;54434;50.096;20.082;2023-04-08T01:58:31;2.04;87.01
67641;SHT31;54434;50.096;20.082;2023-04-08T02:01:17;2.07;87.01
67641;SHT31;54434;50.096;20.082;2023-04-08T02:03:58;2.09;87.03
67641;SHT31;54434;50.096;20.082;2023-04-08T02:06:36;2.11;87.05
67641;SHT31;54434;50.096;20.082;2023-04-08T02:09:13;2.14;87.05
67641;SHT31;54434;50.096;20.082;2023-04-08T02:11:49;2.15;87.04
67641;SHT31;54434;50.096;20.082;2023-04-08T02:14:28;2.17;87.06
67641;SHT31;54434;50.096;20.082;2023-04-08T02:17:08;2.18;87.03
67641;SHT31;54434;50.096;20.082;2023-04-08T02:19:54;2.20;87.05
67641;SHT31;54434;50.096;20.082;2023-04-08T02:22:41;2.22;87.06
67641;SHT31;54434;50.096;20.082;2023-04-08T02:25:26;2.24;87.07
67641;SHT31;54434;50.096;20.082;2023-04-08T02:28:08;2.25;87.14
67641;SHT31;54434;50.096;20.082;2023-04-08T02:30:49;2.26;87.10
67641;SHT31;54434;50.096;20.082;2023-04-08T02:33:26;2.27;87.11
67641;SHT31;54434;50.096;20.082;2023-04-08T02:36:05;2.29;87.10
67641;SHT31;54434;50.096;20.082;2023-04-08T02:38:48;2.30;87.10
67641;SHT31;54434;50.096;20.082;2023-04-08T02:41:24;2.29;87.12
67641;SHT31;54434;50.096;20.082;2023-04-08T02:44:03;2.30;87.11
67641;SHT31;54434;50.096;20.082;2023-04-08T02:46:44;2.31;87.14
67641;SHT31;54434;50.096;20.082;2023-04-08T02:49:20;2.32;87.10
67641;SHT31;54434;50.096;20.082;2023-04-08T02:51:56;2.35;87.07
67641;SHT31;54434;50.096;20.082;2023-04-08T02:54:33;2.34;87.05
67641;SHT31;54434;50.096;20.082;2023-04-08T02:57:09;2.33;87.10
67641;SHT31;54434;50.096;20.082;2023-04-08T02:59:45;2.33;87.11
67641;SHT31;54434;50.096;20.082;2023-04-08T03:02:22;2.33;87.18
67641;SHT31;54434;50.096;20.082;2023-04-08T03:04:58;2.31;87.21
67641;SHT31;54434;50.096;20.082;2023-04-08T03:07:36;2.31;87.22
67641;SHT31;54434;50.096;20.082;2023-04-08T03:10:13;2.30;87.30
67641;SHT31;54434;50.096;20.082;2023-04-08T03:12:49;2.29;87.35
67641;SHT31;54434;50.096;20.082;2023-04-08T03:15:25;2.27;87.39
67641;SHT31;54434;50.096;20.082;2023-04-08T03:18:02;2.25;87.51
67641;SHT31;54434;50.096;20.082;2023-04-08T03:20:38;2.25;87.54
67641;SHT31;54434;50.096;20.082;2023-04-08T03:23:15;2.21;87.54
67641;SHT31;54434;50.096;20.082;2023-04-08T03:25:51;2.20;87.59
67641;SHT31;54434;50.096;20.082;2023-04-08T03:28:28;2.18;87.66
67641;SHT31;54434;50.096;20.082;2023-04-08T03:31:04;2.16;87.67
67641;SHT31;54434;50.096;20.082;2023-04-08T03:33:41;2.17;87.66
67641;SHT31;54434;50.096;20.082;2023-04-08T03:36:17;2.16;87.69
67641;SHT31;54434;50.096;20.082;2023-04-08T03:38:53;2.18;87.68
67641;SHT31;54434;50.096;20.082;2023-04-08T03:41:30;2.17;87.61
67641;SHT31;54434;50.096;20.082;2023-04-08T03:44:06;2.14;87.69
67641;SHT31;54434;50.096;20.082;2023-04-08T03:46:43;2.13;87.72
67641;SHT31;54434;50.096;20.082;2023-04-08T03:49:19;2.11;87.79
67641;SHT31;54434;50.096;20.082;2023-04-08T03:51:55;2.07;87.82
67641;SHT31;54434;50.096;20.082;2023-04-08T03:54:32;2.06;87.80
67641;SHT31;54434;50.096;20.082;2023-04-08T03:57:08;2.05;87.82
67641;SHT31;54434;50.096;20.082;2023-04-08T03:59:44;2.02;87.89
67641;SHT31;54434;50.096;20.082;2023-04-08T04:02:21;2.02;87.95
67641;SHT31;54434;50.096;20.082;2023-04-08T04:04:58;1.99;88.10
67641;SHT31;54434;50.096;20.082;2023-04-08T04:07:35;1.99;88.11
67641;SHT31;54434;50.096;20.082;2023-04-08T04:10:11;1.98;88.14
67641;SHT31;54434;50.096;20.082;2023-04-08T04:12:48;1.97;88.18
67641;SHT31;54434;50.096;20.082;2023-04-08T04:15:24;1.97;88.30
67641;SHT31;54434;50.096;20.082;2023-04-08T04:18:04;1.97;88.32
67641;SHT31;54434;50.096;20.082;2023-04-08T04:20:41;2.00;88.30
67641;SHT31;54434;50.096;20.082;2023-04-08T04:23:20;2.02;88.32
67641;SHT31;54434;50.096;20.082;2023-04-08T04:25:56;2.04;88.35
67641;SHT31;54434;50.096;20.082;2023-04-08T04:28:33;2.05;88.31
67641;SHT31;54434;50.096;20.082;2023-04-08T04:31:14;2.07;88.26
67641;SHT31;54434;50.096;20.082;2023-04-08T04:33:54;2.11;88.14
67641;SHT31;54434;50.096;20.082;2023-04-08T04:36:31;2.14;88.10
67641;SHT31;54434;50.096;20.082;2023-04-08T04:39:07;2.18;87.99
67641;SHT31;54434;50.096;20.082;2023-04-08T04:41:43;2.22;87.89
67641;SHT31;54434;50.096;20.082;2023-04-08T04:44:20;2.25;87.70
67641;SHT31;54434;50.096;20.082;2023-04-08T04:46:56;2.27;87.57
67641;SHT31;54434;50.096;20.082;2023-04-08T04:49:32;2.29;87.43
67641;SHT31;54434;50.096;20.082;2023-04-08T04:52:10;2.32;87.35
67641;SHT31;54434;50.096;20.082;2023-04-08T04:54:47;2.32;87.04
67641;SHT31;54434;50.096;20.082;2023-04-08T04:57:23;2.33;86.85
67641;SHT31;54434;50.096;20.082;2023-04-08T05:00:00;2.36;86.86
67641;SHT31;54434;50.096;20.082;2023-04-08T05:02:37;2.39;86.80
67641;SHT31;54434;50.096;20.082;2023-04-08T05:05:14;2.41;86.67
67641;SHT31;54434;50.096;20.082;2023-04-08T05:07:51;2.42;86.60
67641;SHT31;54434;50.096;20.082;2023-04-08T05:10:27;2.45;86.53
67641;SHT31;54434;50.096;20.082;2023-04-08T05:13:03;2.49;86.51
67641;SHT31;54434;50.096;20.082;2023-04-08T05:15:40;2.52;86.40
67641;SHT31;54434;50.096;20.082;2023-04-08T05:18:17;2.53;86.36
67641;SHT31;54434;50.096;20.082;2023-04-08T05:20:54;2.55;86.19
67641;SHT31;54434;50.096;20.082;2023-04-08T05:23:30;2.59;86.10
67641;SHT31;54434;50.096;20.082;2023-04-08T05:26:08;2.65;86.05
67641;SHT31;54434;50.096;20.082;2023-04-08T05:28:47;2.66;85.55
67641;SHT31;54434;50.096;20.082;2023-04-08T05:31:23;2.68;85.50
67641;SHT31;54434;50.096;20.082;2023-04-08T05:34:00;2.73;85.58
67641;SHT31;54434;50.096;20.082;2023-04-08T05:36:37;2.77;85.43
67641;SHT31;54434;50.096;20.082;2023-04-08T05:39:13;2.80;85.12
67641;SHT31;54434;50.096;20.082;2023-04-08T05:41:49;2.83;85.03
67641;SHT31;54434;50.096;20.082;2023-04-08T05:44:26;2.85;84.69
67641;SHT31;54434;50.096;20.082;2023-04-08T05:47:02;2.86;84.33
67641;SHT31;54434;50.096;20.082;2023-04-08T05:49:38;2.88;84.23
67641;SHT31;54434;50.096;20.082;2023-04-08T05:52:15;2.94;84.17
67641;SHT31;54434;50.096;20.082;2023-04-08T05:54:52;2.95;84.06
67641;SHT31;54434;50.096;20.082;2023-04-08T05:57:28;2.96;84.16
67641;SHT31;54434;50.096;20.082;2023-04-08T06:00:06;3.01;84.20
67641;SHT31;54434;50.096;20.082;2023-04-08T06:02:44;3.05;84.22
67641;SHT31;54434;50.096;20.082;2023-04-08T06:05:24;3.10;84.31
67641;SHT31;54434;50.096;20.082;2023-04-08T06:08:00;3.14;84.21
67641;SHT31;54434;50.096;20.082;2023-04-08T06:10:37;3.15;83.99
67641;SHT31;54434;50.096;20.082;2023-04-08T06:13:20;3.16;83.82
67641;SHT31;54434;50.096;20.082;2023-04-08T06:15:56;3.20;83.52
67641;SHT31;54434;50.096;20.082;2023-04-08T06:18:42;3.24;83.24
67641;SHT31;54434;50.096;20.082;2023-04-08T06:21:19;3.30;83.02
67641;SHT31;54434;50.096;20.082;2023-04-08T06:23:55;3.38;82.69
67641;SHT31;54434;50.096;20.082;2023-04-08T06:26:33;3.47;82.64
67641;SHT31;54434;50.096;20.082;2023-04-08T06:29:09;3.60;82.70
67641;SHT31;54434;50.096;20.082;2023-04-08T06:31:46;3.74;82.52
67641;SHT31;54434;50.096;20.082;2023-04-08T06:34:22;3.88;82.17
67641;SHT31;54434;50.096;20.082;2023-04-08T06:36:59;4.00;81.96
67641;SHT31;54434;50.096;20.082;2023-04-08T06:39:35;4.13;81.79
67641;SHT31;54434;50.096;20.082;2023-04-08T06:42:12;4.17;81.01
67641;SHT31;54434;50.096;20.082;2023-04-08T06:45:06;4.21;80.95
67641;SHT31;54434;50.096;20.082;2023-04-08T06:47:43;4.29;80.70
67641;SHT31;54434;50.096;20.082;2023-04-08T06:50:20;4.35;80.26
67641;SHT31;54434;50.096;20.082;2023-04-08T06:52:56;4.46;80.16
67641;SHT31;54434;50.096;20.082;2023-04-08T06:55:32;4.64;80.35
67641;SHT31;54434;50.096;20.082;2023-04-08T06:58:09;4.75;79.77
67641;SHT31;54434;50.096;20.082;2023-04-08T07:00:45;4.76;79.14
67641;SHT31;54434;50.096;20.082;2023-04-08T07:03:21;4.76;79.16
67641;SHT31;54434;50.096;20.082;2023-04-08T07:05:59;4.78;78.98
67641;SHT31;54434;50.096;20.082;2023-04-08T07:08:35;4.77;78.63
67641;SHT31;54434;50.096;20.082;2023-04-08T07:11:13;4.79;78.87
67641;SHT31;54434;50.096;20.082;2023-04-08T07:13:49;4.92;78.87
67641;SHT31;54434;50.096;20.082;2023-04-08T07:16:25;5.18;78.80
67641;SHT31;54434;50.096;20.082;2023-04-08T07:19:02;5.32;77.98
67641;SHT31;54434;50.096;20.082;2023-04-08T07:21:38;5.36;77.71
67641;SHT31;54434;50.096;20.082;2023-04-08T07:24:15;5.30;77.22
67641;SHT31;54434;50.096;20.082;2023-04-08T07:26:51;5.31;77.26
67641;SHT31;54434;50.096;20.082;2023-04-08T07:29:27;5.32;77.18
67641;SHT31;54434;50.096;20.082;2023-04-08T07:32:04;5.34;76.93
67641;SHT31;54434;50.096;20.082;2023-04-08T07:34:40;5.34;76.59
67641;SHT31;54434;50.096;20.082;2023-04-08T07:37:17;5.36;77.28
67641;SHT31;54434;50.096;20.082;2023-04-08T07:39:53;5.35;76.79
67641;SHT31;54434;50.096;20.082;2023-04-08T07:42:29;5.30;76.87
67641;SHT31;54434;50.096;20.082;2023-04-08T07:45:08;5.23;76.68
67641;SHT31;54434;50.096;20.082;2023-04-08T07:47:45;5.18;77.19
67641;SHT31;54434;50.096;20.082;2023-04-08T07:50:22;5.20;77.09
67641;SHT31;54434;50.096;20.082;2023-04-08T07:52:58;5.22;77.13
67641;SHT31;54434;50.096;20.082;2023-04-08T07:55:35;5.19;77.12
67641;SHT31;54434;50.096;20.082;2023-04-08T07:58:13;5.14;77.41
67641;SHT31;54434;50.096;20.082;2023-04-08T08:00:49;5.18;77.69
67641;SHT31;54434;50.096;20.082;2023-04-08T08:03:26;5.18;77.02
67641;SHT31;54434;50.096;20.082;2023-04-08T08:06:05;5.23;77.13
67641;SHT31;54434;50.096;20.082;2023-04-08T08:08:42;5.37;77.24
67641;SHT31;54434;50.096;20.082;2023-04-08T08:11:19;5.50;76.62
67641;SHT31;54434;50.096;20.082;2023-04-08T08:13:57;5.59;76.46
67641;SHT31;54434;50.096;20.082;2023-04-08T08:16:35;5.67;75.94
67641;SHT31;54434;50.096;20.082;2023-04-08T08:19:12;5.71;75.96
67641;SHT31;54434;50.096;20.082;2023-04-08T08:21:48;5.79;75.75
67641;SHT31;54434;50.096;20.082;2023-04-08T08:24:25;5.86;75.91
67641;SHT31;54434;50.096;20.082;2023-04-08T08:27:01;5.91;75.52
67641;SHT31;54434;50.096;20.082;2023-04-08T08:29:38;5.87;75.36
67641;SHT31;54434;50.096;20.082;2023-04-08T08:32:15;5.87;75.76
67641;SHT31;54434;50.096;20.082;2023-04-08T08:34:51;5.82;75.73
67641;SHT31;54434;50.096;20.082;2023-04-08T08:37:28;5.84;75.94
67641;SHT31;54434;50.096;20.082;2023-04-08T08:40:05;5.82;75.92
67641;SHT31;54434;50.096;20.082;2023-04-08T08:42:43;5.82;75.97
67641;SHT31;54434;50.096;20.082;2023-04-08T08:45:25;5.85;75.73
67641;SHT31;54434;50.096;20.082;2023-04-08T08:48:03;5.89;75.71
67641;SHT31;54434;50.096;20.082;2023-04-08T08:50:40;5.90;75.67
67641;SHT31;54434;50.096;20.082;2023-04-08T08:53:17;5.86;75.27
67641;SHT31;54434;50.096;20.082;2023-04-08T08:55:54;5.94;75.72
67641;SHT31;54434;50.096;20.082;2023-04-08T08:58:48;6.04;75.19
67641;SHT31;54434;50.096;20.082;2023-04-08T09:01:34;6.13;75.00
67641;SHT31;54434;50.096;20.082;2023-04-08T09:04:16;6.19;75.03
67641;SHT31;54434;50.096;20.082;2023-04-08T09:07:09;6.28;75.09
67641;SHT31;54434;50.096;20.082;2023-04-08T09:09:50;6.44;74.70
67641;SHT31;54434;50.096;20.082;2023-04-08T09:12:27;6.56;74.43
67641;SHT31;54434;50.096;20.082;2023-04-08T09:15:08;6.67;74.52
67641;SHT31;54434;50.096;20.082;2023-04-08T09:17:45;6.63;74.34
67641;SHT31;54434;50.096;20.082;2023-04-08T09:20:22;6.65;74.27
67641;SHT31;54434;50.096;20.082;2023-04-08T09:23:00;6.75;74.05
67641;SHT31;54434;50.096;20.082;2023-04-08T09:25:36;6.98;73.75
67641;SHT31;54434;50.096;20.082;2023-04-08T09:28:20;7.04;72.87
67641;SHT31;54434;50.096;20.082;2023-04-08T09:30:57;7.07;72.67
67641;SHT31;54434;50.096;20.082;2023-04-08T09:33:50;7.10;72.98
67641;SHT31;54434;50.096;20.082;2023-04-08T09:36:29;7.03;73.02
67641;SHT31;54434;50.096;20.082;2023-04-08T09:39:05;7.05;73.37
67641;SHT31;54434;50.096;20.082;2023-04-08T09:41:42;7.04;72.98
67641;SHT31;54434;50.096;20.082;2023-04-08T09:44:23;6.96;73.30
67641;SHT31;54434;50.096;20.082;2023-04-08T09:47:07;6.99;73.77
67641;SHT31;54434;50.096;20.082;2023-04-08T09:49:54;6.97;72.99
67641;SHT31;54434;50.096;20.082;2023-04-08T09:52:43;6.82;73.15
67641;SHT31;54434;50.096;20.082;2023-04-08T09:55:25;6.67;73.44
67641;SHT31;54434;50.096;20.082;2023-04-08T09:58:10;6.46;73.41
67641;SHT31;54434;50.096;20.082;2023-04-08T10:00:58;6.28;74.05
67641;SHT31;54434;50.096;20.082;2023-04-08T10:03:39;6.13;74.26
67641;SHT31;54434;50.096;20.082;2023-04-08T10:06:25;6.04;75.14
67641;SHT31;54434;50.096;20.082;2023-04-08T10:09:05;6.00;75.43
67641;SHT31;54434;50.096;20.082;2023-04-08T10:11:42;5.97;75.61
67641;SHT31;54434;50.096;20.082;2023-04-08T10:14:19;5.97;75.60
67641;SHT31;54434;50.096;20.082;2023-04-08T10:17:24;5.95;75.50
67641;SHT31;54434;50.096;20.082;2023-04-08T10:20:10;5.93;75.83
67641;SHT31;54434;50.096;20.082;2023-04-08T10:23:20;5.89;76.12
67641;SHT31;54434;50.096;20.082;2023-04-08T10:26:33;5.83;76.10
67641;SHT31;54434;50.096;20.082;2023-04-08T10:29:34;5.76;75.75
67641;SHT31;54434;50.096;20.082;2023-04-08T10:32:19;5.75;75.68
67641;SHT31;54434;50.096;20.082;2023-04-08T10:35:12;5.70;75.71
67641;SHT31;54434;50.096;20.082;2023-04-08T10:37:49;5.64;75.87
67641;SHT31;54434;50.096;20.082;2023-04-08T10:40:26;5.64;76.01
67641;SHT31;54434;50.096;20.082;2023-04-08T10:43:09;5.66;76.24
67641;SHT31;54434;50.096;20.082;2023-04-08T10:45:47;5.65;76.01
67641;SHT31;54434;50.096;20.082;2023-04-08T10:48:26;5.65;76.06
67641;SHT31;54434;50.096;20.082;2023-04-08T10:51:03;5.64;76.27
67641;SHT31;54434;50.096;20.082;2023-04-08T10:53:40;5.66;76.41
67641;SHT31;54434;50.096;20.082;2023-04-08T10:56:17;5.74;76.69
67641;SHT31;54434;50.096;20.082;2023-04-08T10:58:56;5.78;76.43
67641;SHT31;54434;50.096;20.082;2023-04-08T11:01:39;5.81;76.28
67641;SHT31;54434;50.096;20.082;2023-04-08T11:04:18;5.82;76.20
67641;SHT31;54434;50.096;20.082;2023-04-08T11:06:54;5.84;76.17
67641;SHT31;54434;50.096;20.082;2023-04-08T11:09:32;5.85;75.94
67641;SHT31;54434;50.096;20.082;2023-04-08T11:12:12;5.86;76.09
67641;SHT31;54434;50.096;20.082;2023-04-08T11:14:52;5.90;76.32
67641;SHT31;54434;50.096;20.082;2023-04-08T11:17:29;5.90;76.28
67641;SHT31;54434;50.096;20.082;2023-04-08T11:20:10;5.89;76.33
67641;SHT31;54434;50.096;20.082;2023-04-08T11:22:47;5.91;76.20
67641;SHT31;54434;50.096;20.082;2023-04-08T11:25:23;5.91;76.37
67641;SHT31;54434;50.096;20.082;2023-04-08T11:28:00;5.92;76.25
67641;SHT31;54434;50.096;20.082;2023-04-08T11:30:38;5.90;76.26
67641;SHT31;54434;50.096;20.082;2023-04-08T11:33:15;5.90;76.55
67641;SHT31;54434;50.096;20.082;2023-04-08T11:35:52;5.89;76.59
67641;SHT31;54434;50.096;20.082;2023-04-08T11:38:29;5.91;76.94
67641;SHT31;54434;50.096;20.082;2023-04-08T11:41:05;5.91;77.04
67641;SHT31;54434;50.096;20.082;2023-04-08T11:43:55;5.88;76.93
67641;SHT31;54434;50.096;20.082;2023-04-08T11:46:31;5.83;77.03
67641;SHT31;54434;50.096;20.082;2023-04-08T11:49:09;5.81;77.19
67641;SHT31;54434;50.096;20.082;2023-04-08T11:51:58;5.83;77.13
67641;SHT31;54434;50.096;20.082;2023-04-08T11:54:39;5.84;77.39
67641;SHT31;54434;50.096;20.082;2023-04-08T11:57:26;5.86;77.55
67641;SHT31;54434;50.096;20.082;2023-04-08T12:00:04;5.88;77.57
67641;SHT31;54434;50.096;20.082;2023-04-08T12:02:43;5.92;77.68
67641;SHT31;54434;50.096;20.082;2023-04-08T12:05:20;5.93;77.96
67641;SHT31;54434;50.096;20.082;2023-04-08T12:07:57;5.94;77.69
67641;SHT31;54434;50.096;20.082;2023-04-08T12:10:34;5.95;77.33
67641;SHT31;54434;50.096;20.082;2023-04-08T12:13:11;5.99;77.34
67641;SHT31;54434;50.096;20.082;2023-04-08T12:15:47;6.04;77.39
67641;SHT31;54434;50.096;20.082;2023-04-08T12:18:23;6.03;77.30
67641;SHT31;54434;50.096;20.082;2023-04-08T12:21:00;6.05;77.49
67641;SHT31;54434;50.096;20.082;2023-04-08T12:23:36;6.12;77.58
67641;SHT31;54434;50.096;20.082;2023-04-08T12:26:13;6.18;77.37
67641;SHT31;54434;50.096;20.082;2023-04-08T12:28:50;6.17;77.27
67641;SHT31;54434;50.096;20.082;2023-04-08T12:31:27;6.16;77.32
67641;SHT31;54434;50.096;20.082;2023-04-08T12:34:03;6.19;77.21
67641;SHT31;54434;50.096;20.082;2023-04-08T12:36:39;6.24;77.12
67641;SHT31;54434;50.096;20.082;2023-04-08T12:39:16;6.27;77.28
67641;SHT31;54434;50.096;20.082;2023-04-08T12:41:52;6.32;77.14
67641;SHT31;54434;50.096;20.082;2023-04-08T12:44:30;6.35;76.98
67641;SHT31;54434;50.096;20.082;2023-04-08T12:47:06;6.39;76.94
67641;SHT31;54434;50.096;20.082;2023-04-08T12:49:43;6.47;76.91
67641;SHT31;54434;50.096;20.082;2023-04-08T12:52:21;6.51;76.77
67641;SHT31;54434;50.096;20.082;2023-04-08T12:54:57;6.50;76.71
67641;SHT31;54434;50.096;20.082;2023-04-08T12:57:34;6.52;76.64
67641;SHT31;54434;50.096;20.082;2023-04-08T13:00:14;6.54;76.66
67641;SHT31;54434;50.096;20.082;2023-04-08T13:02:51;6.59;76.75
67641;SHT31;54434;50.096;20.082;2023-04-08T13:05:27;6.64;76.73
67641;SHT31;54434;50.096;20.082;2023-04-08T13:08:10;6.64;76.35
67641;SHT31;54434;50.096;20.082;2023-04-08T13:10:47;6.67;76.47
67641;SHT31;54434;50.096;20.082;2023-04-08T13:13:23;6.73;76.57
67641;SHT31;54434;50.096;20.082;2023-04-08T13:16:00;6.76;76.28
67641;SHT31;54434;50.096;20.082;2023-04-08T13:18:37;6.84;76.23
67641;SHT31;54434;50.096;20.082;2023-04-08T13:21:14;6.93;75.92
67641;SHT31;54434;50.096;20.082;2023-04-08T13:23:51;7.03;75.99
67641;SHT31;54434;50.096;20.082;2023-04-08T13:26:28;7.07;76.03
67641;SHT31;54434;50.096;20.082;2023-04-08T13:29:04;7.07;75.64
67641;SHT31;54434;50.096;20.082;2023-04-08T13:31:41;7.07;75.61
67641;SHT31;54434;50.096;20.082;2023-04-08T13:34:21;7.11;75.61
67641;SHT31;54434;50.096;20.082;2023-04-08T13:36:57;7.14;75.54
67641;SHT31;54434;50.096;20.082;2023-04-08T13:39:34;7.17;75.55
67641;SHT31;54434;50.096;20.082;2023-04-08T13:42:10;7.18;75.36
67641;SHT31;54434;50.096;20.082;2023-04-08T13:44:47;7.17;75.44
67641;SHT31;54434;50.096;20.082;2023-04-08T13:47:23;7.18;75.77
67641;SHT31;54434;50.096;20.082;2023-04-08T13:50:00;7.17;75.50
67641;SHT31;54434;50.096;20.082;2023-04-08T13:52:37;7.15;75.53
67641;SHT31;54434;50.096;20.082;2023-04-08T13:55:13;7.17;75.70
67641;SHT31;54434;50.096;20.082;2023-04-08T13:57:51;7.15;75.81
67641;SHT31;54434;50.096;20.082;2023-04-08T14:00:28;7.16;75.81
67641;SHT31;54434;50.096;20.082;2023-04-08T14:03:04;7.20;76.03
67641;SHT31;54434;50.096;20.082;2023-04-08T14:05:41;7.26;75.99
67641;SHT31;54434;50.096;20.082;2023-04-08T14:08:17;7.30;75.86
67641;SHT31;54434;50.096;20.082;2023-04-08T14:10:57;7.31;75.58
67641;SHT31;54434;50.096;20.082;2023-04-08T14:13:33;7.32;75.42
67641;SHT31;54434;50.096;20.082;2023-04-08T14:16:10;7.34;75.43
67641;SHT31;54434;50.096;20.082;2023-04-08T14:18:47;7.40;75.54
67641;SHT31;54434;50.096;20.082;2023-04-08T14:21:24;7.42;75.41
67641;SHT31;54434;50.096;20.082;2023-04-08T14:24:02;7.44;75.53
67641;SHT31;54434;50.096;20.082;2023-04-08T14:26:39;7.47;75.44
67641;SHT31;54434;50.096;20.082;2023-04-08T14:29:15;7.45;74.98
67641;SHT31;54434;50.096;20.082;2023-04-08T14:31:52;7.45;75.12
67641;SHT31;54434;50.096;20.082;2023-04-08T14:34:28;7.48;75.17
67641;SHT31;54434;50.096;20.082;2023-04-08T14:37:04;7.49;75.20
67641;SHT31;54434;50.096;20.082;2023-04-08T14:39:41;7.48;74.98
67641;SHT31;54434;50.096;20.082;2023-04-08T14:42:19;7.50;75.30
67641;SHT31;54434;50.096;20.082;2023-04-08T14:44:56;7.53;75.14
67641;SHT31;54434;50.096;20.082;2023-04-08T14:47:32;7.53;74.85
67641;SHT31;54434;50.096;20.082;2023-04-08T14:50:10;7.51;74.93
67641;SHT31;54434;50.096;20.082;2023-04-08T14:52:46;7.49;75.11
67641;SHT31;54434;50.096;20.082;2023-04-08T14:55:23;7.47;75.07
67641;SHT31;54434;50.096;20.082;2023-04-08T14:58:00;7.46;75.17
67641;SHT31;54434;50.096;20.082;2023-04-08T15:00:37;7.47;75.26
67641;SHT31;54434;50.096;20.082;2023-04-08T15:03:15;7.45;75.19
67641;SHT31;54434;50.096;20.082;2023-04-08T15:06:01;7.46;75.31
67641;SHT31;54434;50.096;20.082;2023-04-08T15:08:38;7.44;75.38
67641;SHT31;54434;50.096;20.082;2023-04-08T15:11:14;7.46;75.59
67641;SHT31;54434;50.096;20.082;2023-04-08T15:13:51;7.49;75.54
67641;SHT31;54434;50.096;20.082;2023-04-08T15:16:28;7.49;75.26
67641;SHT31;54434;50.096;20.082;2023-04-08T15:19:04;7.51;74.98
67641;SHT31;54434;50.096;20.082;2023-04-08T15:21:41;7.49;75.08
67641;SHT31;54434;50.096;20.082;2023-04-08T15:24:17;7.50;75.07
67641;SHT31;54434;50.096;20.082;2023-04-08T15:26:54;7.51;75.08
67641;SHT31;54434;50.096;20.082;2023-04-08T15:29:30;7.54;74.98
67641;SHT31;54434;50.096;20.082;2023-04-08T15:32:08;7.55;75.06
67641;SHT31;54434;50.096;20.082;2023-04-08T15:34:44;7.57;74.95
67641;SHT31;54434;50.096;20.082;2023-04-08T15:37:21;7.57;74.89
67641;SHT31;54434;50.096;20.082;2023-04-08T15:39:58;7.61;75.23
67641;SHT31;54434;50.096;20.082;2023-04-08T15:42:35;7.65;75.44
67641;SHT31;54434;50.096;20.082;2023-04-08T15:45:12;7.67;75.32
67641;SHT31;54434;50.096;20.082;2023-04-08T15:47:48;7.63;75.04
67641;SHT31;54434;50.096;20.082;2023-04-08T15:50:28;7.60;74.96
67641;SHT31;54434;50.096;20.082;2023-04-08T15:53:05;7.56;75.04
67641;SHT31;54434;50.096;20.082;2023-04-08T15:55:43;7.52;75.09
67641;SHT31;54434;50.096;20.082;2023-04-08T15:58:20;7.51;75.28
67641;SHT31;54434;50.096;20.082;2023-04-08T16:00:57;7.50;75.25
67641;SHT31;54434;50.096;20.082;2023-04-08T16:03:34;7.44;75.43
67641;SHT31;54434;50.096;20.082;2023-04-08T16:06:10;7.42;75.39
67641;SHT31;54434;50.096;20.082;2023-04-08T16:08:47;7.37;75.44
67641;SHT31;54434;50.096;20.082;2023-04-08T16:11:23;7.36;75.57
67641;SHT31;54434;50.096;20.082;2023-04-08T16:14:00;7.34;75.47
67641;SHT31;54434;50.096;20.082;2023-04-08T16:16:37;7.33;75.67
67641;SHT31;54434;50.096;20.082;2023-04-08T16:19:13;7.34;75.84
67641;SHT31;54434;50.096;20.082;2023-04-08T16:21:52;7.34;76.07
67641;SHT31;54434;50.096;20.082;2023-04-08T16:24:29;7.34;76.16
67641;SHT31;54434;50.096;20.082;2023-04-08T16:27:08;7.33;76.21
67641;SHT31;54434;50.096;20.082;2023-04-08T16:29:45;7.29;76.35
67641;SHT31;54434;50.096;20.082;2023-04-08T16:32:21;7.27;76.44
67641;SHT31;54434;50.096;20.082;2023-04-08T16:34:59;7.26;76.50
67641;SHT31;54434;50.096;20.082;2023-04-08T16:37:35;7.25;76.57
67641;SHT31;54434;50.096;20.082;2023-04-08T16:40:13;7.23;76.63